sensor_id;sensor_type;location;lat;lon;timestamp;P1;durP1;ratioP1;P2;durP2;ratioP2
20531;SDS011;10424;52.102;8.084;2023-01-28T00:01:09;7.50;;;5.47;;
20531;SDS011;10424;52.102;8.084;2023-01-28T00:03:38;8.10;;;5.27;;
20531;SDS011;10424;52.102;8.084;2023-01-28T00:06:06;8.27;;;4.90;;
20531;SDS011;10424;52.102;8.084;2023-01-28T00:08:33;6.53;;;4.60;;
20531;SDS011;10424;52.102;8.084;2023-01-28T00:11:01;8.90;;;5.07;;
20531;SDS011;10424;52.102;8.084;2023-01-28T00:13:28;7.83;;;5.30;;
20531;SDS011;10424;52.102;8.084;2023-01-28T00:15:56;7.87;;;5.20;;
20531;SDS011;10424;52.102;8.084;2023-01-28T00:18:23;10.80;;;5.73;;
20531;SDS011;10424;52.102;8.084;2023-01-28T00:20:58;8.20;;;5.53;;
20531;SDS011;10424;52.102;8.084;2023-01-28T00:23:26;9.20;;;5.70;;
20531;SDS011;10424;52.102;8.084;2023-01-28T00:25:54;6.93;;;4.63;;
20531;SDS011;10424;52.102;8.084;2023-01-28T00:28:23;8.03;;;5.37;;
20531;SDS011;10424;52.102;8.084;2023-01-28T00:30:51;8.43;;;6.07;;
20531;SDS011;10424;52.102;8.084;2023-01-28T00:33:18;8.17;;;5.37;;
20531;SDS011;10424;52.102;8.084;2023-01-28T00:35:45;10.00;;;5.77;;
20531;SDS011;10424;52.102;8.084;2023-01-28T00:38:14;9.90;;;5.40;;
20531;SDS011;10424;52.102;8.084;2023-01-28T00:40:41;7.83;;;5.50;;
20531;SDS011;10424;52.102;8.084;2023-01-28T00:43:09;7.17;;;4.73;;
20531;SDS011;10424;52.102;8.084;2023-01-28T00:45:36;7.63;;;4.30;;
20531;SDS011;10424;52.102;8.084;2023-01-28T00:48:04;6.40;;;4.20;;
20531;SDS011;10424;52.102;8.084;2023-01-28T00:50:32;6.90;;;4.50;;
20531;SDS011;10424;52.102;8.084;2023-01-28T00:52:59;6.40;;;4.30;;
20531;SDS011;10424;52.102;8.084;2023-01-28T00:55:28;7.27;;;5.00;;
20531;SDS011;10424;52.102;8.084;2023-01-28T00:57:55;8.50;;;5.00;;
20531;SDS011;10424;52.102;8.084;2023-01-28T01:00:22;6.80;;;4.50;;
20531;SDS011;10424;52.102;8.084;2023-01-28T01:02:51;7.23;;;4.83;;
20531;SDS011;10424;52.102;8.084;2023-01-28T01:05:18;7.43;;;4.83;;
20531;SDS011;10424;52.102;8.084;2023-01-28T01:07:45;7.37;;;5.10;;
20531;SDS011;10424;52.102;8.084;2023-01-28T01:10:15;8.03;;;4.80;;
20531;SDS011;10424;52.102;8.084;2023-01-28T01:12:44;9.07;;;5.10;;
20531;SDS011;10424;52.102;8.084;2023-01-28T01:15:11;9.17;;;5.40;;
20531;SDS011;10424;52.102;8.084;2023-01-28T01:17:39;7.07;;;5.07;;
20531;SDS011;10424;52.102;8.084;2023-01-28T01:20:07;9.87;;;4.90;;
20531;SDS011;10424;52.102;8.084;2023-01-28T01:22:35;9.37;;;4.83;;
20531;SDS011;10424;52.102;8.084;2023-01-28T01:25:03;8.47;;;4.77;;
20531;SDS011;10424;52.102;8.084;2023-01-28T01:27:30;7.47;;;4.70;;
20531;SDS011;10424;52.102;8.084;2023-01-28T01:29:59;6.90;;;4.90;;
20531;SDS011;10424;52.102;8.084;2023-01-28T01:32:28;6.90;;;4.80;;
20531;SDS011;10424;52.102;8.084;2023-01-28T01:34:55;7.03;;;4.70;;
20531;SDS011;10424;52.102;8.084;2023-01-28T01:37:22;6.93;;;4.70;;
20531;SDS011;10424;52.102;8.084;2023-01-28T01:39:50;8.10;;;4.90;;
20531;SDS011;10424;52.102;8.084;2023-01-28T01:42:17;6.90;;;4.50;;
20531;SDS011;10424;52.102;8.084;2023-01-28T01:44:59;7.37;;;4.73;;
20531;SDS011;10424;52.102;8.084;2023-01-28T01:47:28;9.60;;;4.70;;
20531;SDS011;10424;52.102;8.084;2023-01-28T01:49:58;7.63;;;4.60;;
20531;SDS011;10424;52.102;8.084;2023-01-28T01:52:27;5.50;;;4.20;;
20531;SDS011;10424;52.102;8.084;2023-01-28T01:54:58;6.67;;;4.23;;
20531;SDS011;10424;52.102;8.084;2023-01-28T01:57:27;6.67;;;4.57;;
20531;SDS011;10424;52.102;8.084;2023-01-28T01:59:55;8.43;;;5.73;;
20531;SDS011;10424;52.102;8.084;2023-01-28T02:02:31;9.17;;;6.07;;
20531;SDS011;10424;52.102;8.084;2023-01-28T02:04:59;11.63;;;6.60;;
20531;SDS011;10424;52.102;8.084;2023-01-28T02:07:27;12.93;;;7.33;;
20531;SDS011;10424;52.102;8.084;2023-01-28T02:09:54;5.97;;;4.10;;
20531;SDS011;10424;52.102;8.084;2023-01-28T02:12:23;9.23;;;5.60;;
20531;SDS011;10424;52.102;8.084;2023-01-28T02:14:54;5.90;;;4.33;;
20531;SDS011;10424;52.102;8.084;2023-01-28T02:17:22;20.67;;;10.37;;
20531;SDS011;10424;52.102;8.084;2023-01-28T02:19:52;13.73;;;7.37;;
20531;SDS011;10424;52.102;8.084;2023-01-28T02:22:25;7.97;;;4.50;;
20531;SDS011;10424;52.102;8.084;2023-01-28T02:25:11;7.57;;;4.97;;
20531;SDS011;10424;52.102;8.084;2023-01-28T02:27:53;6.80;;;4.37;;
20531;SDS011;10424;52.102;8.084;2023-01-28T02:30:24;7.47;;;5.07;;
20531;SDS011;10424;52.102;8.084;2023-01-28T02:32:54;8.40;;;4.80;;
20531;SDS011;10424;52.102;8.084;2023-01-28T02:35:23;7.53;;;4.53;;
20531;SDS011;10424;52.102;8.084;2023-01-28T02:37:56;9.50;;;4.90;;
20531;SDS011;10424;52.102;8.084;2023-01-28T02:40:27;8.53;;;4.73;;
20531;SDS011;10424;52.102;8.084;2023-01-28T02:42:57;6.50;;;4.70;;
20531;SDS011;10424;52.102;8.084;2023-01-28T02:45:25;8.27;;;5.00;;
20531;SDS011;10424;52.102;8.084;2023-01-28T02:48:13;9.07;;;4.90;;
20531;SDS011;10424;52.102;8.084;2023-01-28T02:50:42;7.63;;;4.40;;
20531;SDS011;10424;52.102;8.084;2023-01-28T02:53:16;7.10;;;4.90;;
20531;SDS011;10424;52.102;8.084;2023-01-28T02:56:06;6.73;;;4.70;;
20531;SDS011;10424;52.102;8.084;2023-01-28T02:58:36;8.97;;;4.83;;
20531;SDS011;10424;52.102;8.084;2023-01-28T03:01:07;6.80;;;5.00;;
20531;SDS011;10424;52.102;8.084;2023-01-28T03:03:38;8.40;;;4.80;;
20531;SDS011;10424;52.102;8.084;2023-01-28T03:06:08;18.03;;;7.77;;
20531;SDS011;10424;52.102;8.084;2023-01-28T03:08:38;7.57;;;4.80;;
20531;SDS011;10424;52.102;8.084;2023-01-28T03:11:26;8.73;;;4.83;;
20531;SDS011;10424;52.102;8.084;2023-01-28T03:14:14;17.90;;;7.27;;
20531;SDS011;10424;52.102;8.084;2023-01-28T03:16:59;7.47;;;5.03;;
20531;SDS011;10424;52.102;8.084;2023-01-28T03:19:45;14.43;;;6.57;;
20531;SDS011;10424;52.102;8.084;2023-01-28T03:22:30;7.93;;;4.80;;
20531;SDS011;10424;52.102;8.084;2023-01-28T03:25:16;11.43;;;5.33;;
20531;SDS011;10424;52.102;8.084;2023-01-28T03:28:03;9.60;;;5.10;;
20531;SDS011;10424;52.102;8.084;2023-01-28T03:30:52;9.37;;;5.33;;
20531;SDS011;10424;52.102;8.084;2023-01-28T03:33:40;11.13;;;5.90;;
20531;SDS011;10424;52.102;8.084;2023-01-28T03:36:25;7.73;;;5.00;;
20531;SDS011;10424;52.102;8.084;2023-01-28T03:39:10;6.63;;;4.77;;
20531;SDS011;10424;52.102;8.084;2023-01-28T03:41:38;7.53;;;5.10;;
20531;SDS011;10424;52.102;8.084;2023-01-28T03:44:05;8.00;;;4.97;;
20531;SDS011;10424;52.102;8.084;2023-01-28T03:46:51;9.40;;;5.43;;
20531;SDS011;10424;52.102;8.084;2023-01-28T03:49:19;8.73;;;5.40;;
20531;SDS011;10424;52.102;8.084;2023-01-28T03:51:46;9.00;;;5.33;;
20531;SDS011;10424;52.102;8.084;2023-01-28T03:54:13;9.87;;;5.10;;
20531;SDS011;10424;52.102;8.084;2023-01-28T03:56:40;9.53;;;5.57;;
20531;SDS011;10424;52.102;8.084;2023-01-28T03:59:08;10.77;;;6.17;;
20531;SDS011;10424;52.102;8.084;2023-01-28T04:01:35;8.87;;;5.17;;
20531;SDS011;10424;52.102;8.084;2023-01-28T04:04:04;9.70;;;5.90;;
20531;SDS011;10424;52.102;8.084;2023-01-28T04:06:31;11.23;;;5.73;;
20531;SDS011;10424;52.102;8.084;2023-01-28T04:08:58;9.27;;;5.70;;
20531;SDS011;10424;52.102;8.084;2023-01-28T04:11:25;8.63;;;5.77;;
20531;SDS011;10424;52.102;8.084;2023-01-28T04:13:53;8.87;;;5.40;;
20531;SDS011;10424;52.102;8.084;2023-01-28T04:16:20;8.30;;;5.53;;
20531;SDS011;10424;52.102;8.084;2023-01-28T04:18:47;8.47;;;5.50;;
20531;SDS011;10424;52.102;8.084;2023-01-28T04:21:16;9.10;;;5.27;;
20531;SDS011;10424;52.102;8.084;2023-01-28T04:23:43;8.53;;;5.43;;
20531;SDS011;10424;52.102;8.084;2023-01-28T04:26:11;8.77;;;5.43;;
20531;SDS011;10424;52.102;8.084;2023-01-28T04:28:38;9.03;;;5.50;;
20531;SDS011;10424;52.102;8.084;2023-01-28T04:31:05;9.23;;;6.00;;
20531;SDS011;10424;52.102;8.084;2023-01-28T04:33:33;9.23;;;5.73;;
20531;SDS011;10424;52.102;8.084;2023-01-28T04:36:00;9.43;;;6.00;;
20531;SDS011;10424;52.102;8.084;2023-01-28T04:38:28;9.93;;;5.90;;
20531;SDS011;10424;52.102;8.084;2023-01-28T04:40:56;12.33;;;7.27;;
20531;SDS011;10424;52.102;8.084;2023-01-28T04:43:23;9.17;;;6.20;;
20531;SDS011;10424;52.102;8.084;2023-01-28T04:45:50;11.83;;;6.67;;
20531;SDS011;10424;52.102;8.084;2023-01-28T04:48:17;10.57;;;6.53;;
20531;SDS011;10424;52.102;8.084;2023-01-28T04:50:45;12.40;;;6.27;;
20531;SDS011;10424;52.102;8.084;2023-01-28T04:53:12;10.13;;;6.30;;
20531;SDS011;10424;52.102;8.084;2023-01-28T04:55:41;10.23;;;6.27;;
20531;SDS011;10424;52.102;8.084;2023-01-28T04:58:08;9.73;;;5.90;;
20531;SDS011;10424;52.102;8.084;2023-01-28T05:00:35;9.83;;;5.87;;
20531;SDS011;10424;52.102;8.084;2023-01-28T05:03:02;9.50;;;6.17;;
20531;SDS011;10424;52.102;8.084;2023-01-28T05:05:30;13.00;;;6.30;;
20531;SDS011;10424;52.102;8.084;2023-01-28T05:07:57;10.17;;;6.57;;
20531;SDS011;10424;52.102;8.084;2023-01-28T05:10:25;10.17;;;6.40;;
20531;SDS011;10424;52.102;8.084;2023-01-28T05:12:54;10.57;;;6.40;;
20531;SDS011;10424;52.102;8.084;2023-01-28T05:15:21;11.17;;;6.60;;
20531;SDS011;10424;52.102;8.084;2023-01-28T05:17:48;9.47;;;6.03;;
20531;SDS011;10424;52.102;8.084;2023-01-28T05:20:15;9.97;;;6.60;;
20531;SDS011;10424;52.102;8.084;2023-01-28T05:22:43;9.20;;;6.37;;
20531;SDS011;10424;52.102;8.084;2023-01-28T05:25:10;8.97;;;6.30;;
20531;SDS011;10424;52.102;8.084;2023-01-28T05:27:37;9.47;;;6.30;;
20531;SDS011;10424;52.102;8.084;2023-01-28T05:30:07;11.40;;;6.33;;
20531;SDS011;10424;52.102;8.084;2023-01-28T05:32:34;10.17;;;5.97;;
20531;SDS011;10424;52.102;8.084;2023-01-28T05:35:01;9.57;;;6.43;;
20531;SDS011;10424;52.102;8.084;2023-01-28T05:37:29;10.80;;;6.40;;
20531;SDS011;10424;52.102;8.084;2023-01-28T05:39:56;10.33;;;6.07;;
20531;SDS011;10424;52.102;8.084;2023-01-28T05:42:23;10.30;;;6.43;;
20531;SDS011;10424;52.102;8.084;2023-01-28T05:44:50;11.63;;;6.47;;
20531;SDS011;10424;52.102;8.084;2023-01-28T05:47:19;10.77;;;6.93;;
20531;SDS011;10424;52.102;8.084;2023-01-28T05:49:46;10.67;;;6.67;;
20531;SDS011;10424;52.102;8.084;2023-01-28T05:52:13;11.60;;;7.00;;
20531;SDS011;10424;52.102;8.084;2023-01-28T05:54:41;10.90;;;6.80;;
20531;SDS011;10424;52.102;8.084;2023-01-28T05:57:08;10.17;;;6.40;;
20531;SDS011;10424;52.102;8.084;2023-01-28T05:59:35;11.93;;;7.00;;
20531;SDS011;10424;52.102;8.084;2023-01-28T06:02:03;12.10;;;6.37;;
20531;SDS011;10424;52.102;8.084;2023-01-28T06:04:32;10.90;;;6.40;;
20531;SDS011;10424;52.102;8.084;2023-01-28T06:06:59;11.03;;;6.37;;
20531;SDS011;10424;52.102;8.084;2023-01-28T06:09:26;9.20;;;6.50;;
20531;SDS011;10424;52.102;8.084;2023-01-28T06:11:54;12.67;;;6.40;;
20531;SDS011;10424;52.102;8.084;2023-01-28T06:14:21;9.63;;;6.60;;
20531;SDS011;10424;52.102;8.084;2023-01-28T06:16:48;11.13;;;6.23;;
20531;SDS011;10424;52.102;8.084;2023-01-28T06:19:16;11.50;;;5.90;;
20531;SDS011;10424;52.102;8.084;2023-01-28T06:21:45;11.57;;;6.70;;
20531;SDS011;10424;52.102;8.084;2023-01-28T06:24:12;10.23;;;6.30;;
20531;SDS011;10424;52.102;8.084;2023-01-28T06:26:39;9.97;;;6.40;;
20531;SDS011;10424;52.102;8.084;2023-01-28T06:29:06;10.00;;;6.30;;
20531;SDS011;10424;52.102;8.084;2023-01-28T06:31:33;9.87;;;6.50;;
20531;SDS011;10424;52.102;8.084;2023-01-28T06:34:01;9.10;;;6.17;;
20531;SDS011;10424;52.102;8.084;2023-01-28T06:36:28;10.40;;;6.30;;
20531;SDS011;10424;52.102;8.084;2023-01-28T06:38:57;9.60;;;6.50;;
20531;SDS011;10424;52.102;8.084;2023-01-28T06:41:24;10.27;;;6.47;;
20531;SDS011;10424;52.102;8.084;2023-01-28T06:43:51;9.40;;;6.17;;
20531;SDS011;10424;52.102;8.084;2023-01-28T06:46:19;10.83;;;6.47;;
20531;SDS011;10424;52.102;8.084;2023-01-28T06:48:46;10.43;;;6.97;;
20531;SDS011;10424;52.102;8.084;2023-01-28T06:51:14;9.90;;;6.17;;
20531;SDS011;10424;52.102;8.084;2023-01-28T06:53:41;10.80;;;6.50;;
20531;SDS011;10424;52.102;8.084;2023-01-28T06:56:10;10.97;;;6.60;;
20531;SDS011;10424;52.102;8.084;2023-01-28T06:58:37;9.57;;;6.37;;
20531;SDS011;10424;52.102;8.084;2023-01-28T07:01:04;10.30;;;6.30;;
20531;SDS011;10424;52.102;8.084;2023-01-28T07:03:31;10.50;;;6.20;;
20531;SDS011;10424;52.102;8.084;2023-01-28T07:05:59;12.17;;;6.27;;
20531;SDS011;10424;52.102;8.084;2023-01-28T07:08:26;8.83;;;6.03;;
20531;SDS011;10424;52.102;8.084;2023-01-28T07:10:53;15.23;;;7.43;;
20531;SDS011;10424;52.102;8.084;2023-01-28T07:13:22;14.03;;;8.07;;
20531;SDS011;10424;52.102;8.084;2023-01-28T07:15:49;12.43;;;7.20;;
20531;SDS011;10424;52.102;8.084;2023-01-28T07:18:17;10.60;;;6.57;;
20531;SDS011;10424;52.102;8.084;2023-01-28T07:20:44;11.17;;;7.00;;
20531;SDS011;10424;52.102;8.084;2023-01-28T07:23:11;12.17;;;7.23;;
20531;SDS011;10424;52.102;8.084;2023-01-28T07:25:38;10.60;;;6.77;;
20531;SDS011;10424;52.102;8.084;2023-01-28T07:28:06;12.73;;;7.37;;
20531;SDS011;10424;52.102;8.084;2023-01-28T07:30:34;14.10;;;7.23;;
20531;SDS011;10424;52.102;8.084;2023-01-28T07:33:02;10.30;;;6.73;;
20531;SDS011;10424;52.102;8.084;2023-01-28T07:35:29;11.43;;;6.90;;
20531;SDS011;10424;52.102;8.084;2023-01-28T07:37:57;11.30;;;6.70;;
20531;SDS011;10424;52.102;8.084;2023-01-28T07:40:25;10.63;;;6.73;;
20531;SDS011;10424;52.102;8.084;2023-01-28T07:42:52;11.23;;;6.70;;
20531;SDS011;10424;52.102;8.084;2023-01-28T07:45:20;11.20;;;6.80;;
20531;SDS011;10424;52.102;8.084;2023-01-28T07:47:59;11.00;;;7.20;;
20531;SDS011;10424;52.102;8.084;2023-01-28T07:50:27;12.93;;;7.13;;
20531;SDS011;10424;52.102;8.084;2023-01-28T07:52:55;11.43;;;6.87;;
20531;SDS011;10424;52.102;8.084;2023-01-28T07:55:22;17.13;;;10.70;;
20531;SDS011;10424;52.102;8.084;2023-01-28T07:57:50;12.97;;;7.30;;
20531;SDS011;10424;52.102;8.084;2023-01-28T08:00:18;13.30;;;7.77;;
20531;SDS011;10424;52.102;8.084;2023-01-28T08:02:45;12.70;;;7.27;;
20531;SDS011;10424;52.102;8.084;2023-01-28T08:05:15;12.73;;;8.30;;
20531;SDS011;10424;52.102;8.084;2023-01-28T08:07:43;17.20;;;10.53;;
20531;SDS011;10424;52.102;8.084;2023-01-28T08:10:12;12.47;;;8.00;;
20531;SDS011;10424;52.102;8.084;2023-01-28T08:12:39;12.13;;;8.00;;
20531;SDS011;10424;52.102;8.084;2023-01-28T08:15:07;27.23;;;13.77;;
20531;SDS011;10424;52.102;8.084;2023-01-28T08:17:34;11.87;;;6.67;;
20531;SDS011;10424;52.102;8.084;2023-01-28T08:20:02;12.37;;;7.73;;
20531;SDS011;10424;52.102;8.084;2023-01-28T08:22:30;15.70;;;8.67;;
20531;SDS011;10424;52.102;8.084;2023-01-28T08:24:58;28.20;;;12.17;;
20531;SDS011;10424;52.102;8.084;2023-01-28T08:27:25;13.57;;;8.10;;
20531;SDS011;10424;52.102;8.084;2023-01-28T08:29:53;12.30;;;7.17;;
20531;SDS011;10424;52.102;8.084;2023-01-28T08:32:20;15.40;;;8.20;;
20531;SDS011;10424;52.102;8.084;2023-01-28T08:34:48;20.03;;;9.73;;
20531;SDS011;10424;52.102;8.084;2023-01-28T08:37:15;10.87;;;6.60;;
20531;SDS011;10424;52.102;8.084;2023-01-28T08:39:44;10.77;;;6.53;;
20531;SDS011;10424;52.102;8.084;2023-01-28T08:42:11;11.27;;;6.47;;
20531;SDS011;10424;52.102;8.084;2023-01-28T08:44:38;13.17;;;7.60;;
20531;SDS011;10424;52.102;8.084;2023-01-28T08:47:06;11.53;;;7.57;;
20531;SDS011;10424;52.102;8.084;2023-01-28T08:49:33;12.27;;;8.10;;
20531;SDS011;10424;52.102;8.084;2023-01-28T08:52:00;13.67;;;8.27;;
20531;SDS011;10424;52.102;8.084;2023-01-28T08:54:27;15.50;;;9.53;;
20531;SDS011;10424;52.102;8.084;2023-01-28T08:56:56;18.10;;;9.53;;
20531;SDS011;10424;52.102;8.084;2023-01-28T08:59:23;16.57;;;8.83;;
20531;SDS011;10424;52.102;8.084;2023-01-28T09:01:51;15.00;;;8.60;;
20531;SDS011;10424;52.102;8.084;2023-01-28T09:04:18;17.77;;;8.97;;
20531;SDS011;10424;52.102;8.084;2023-01-28T09:06:45;13.93;;;8.63;;
20531;SDS011;10424;52.102;8.084;2023-01-28T09:09:12;16.10;;;9.90;;
20531;SDS011;10424;52.102;8.084;2023-01-28T09:11:40;19.97;;;10.63;;
20531;SDS011;10424;52.102;8.084;2023-01-28T09:14:08;19.60;;;9.60;;
20531;SDS011;10424;52.102;8.084;2023-01-28T09:16:36;21.93;;;11.50;;
20531;SDS011;10424;52.102;8.084;2023-01-28T09:19:03;19.43;;;10.73;;
20531;SDS011;10424;52.102;8.084;2023-01-28T09:21:30;24.90;;;12.10;;
20531;SDS011;10424;52.102;8.084;2023-01-28T09:23:57;20.57;;;11.50;;
20531;SDS011;10424;52.102;8.084;2023-01-28T09:26:25;19.20;;;10.87;;
20531;SDS011;10424;52.102;8.084;2023-01-28T09:28:52;17.93;;;10.13;;
20531;SDS011;10424;52.102;8.084;2023-01-28T09:31:21;17.60;;;9.93;;
20531;SDS011;10424;52.102;8.084;2023-01-28T09:33:48;19.67;;;11.00;;
20531;SDS011;10424;52.102;8.084;2023-01-28T09:36:20;15.60;;;9.20;;
20531;SDS011;10424;52.102;8.084;2023-01-28T09:38:48;16.27;;;10.30;;
20531;SDS011;10424;52.102;8.084;2023-01-28T09:41:20;18.43;;;10.10;;
20531;SDS011;10424;52.102;8.084;2023-01-28T09:43:52;17.60;;;10.03;;
20531;SDS011;10424;52.102;8.084;2023-01-28T09:46:22;15.83;;;9.30;;
20531;SDS011;10424;52.102;8.084;2023-01-28T09:48:54;15.20;;;9.47;;
20531;SDS011;10424;52.102;8.084;2023-01-28T09:51:26;20.37;;;9.43;;
20531;SDS011;10424;52.102;8.084;2023-01-28T09:53:55;14.83;;;8.83;;
20531;SDS011;10424;52.102;8.084;2023-01-28T09:56:24;22.03;;;11.70;;
20531;SDS011;10424;52.102;8.084;2023-01-28T09:58:52;18.60;;;10.87;;
20531;SDS011;10424;52.102;8.084;2023-01-28T10:01:30;19.17;;;10.33;;
20531;SDS011;10424;52.102;8.084;2023-01-28T10:04:02;19.70;;;9.83;;
20531;SDS011;10424;52.102;8.084;2023-01-28T10:06:33;19.43;;;9.93;;
20531;SDS011;10424;52.102;8.084;2023-01-28T10:09:18;21.13;;;10.53;;
20531;SDS011;10424;52.102;8.084;2023-01-28T10:11:53;19.20;;;9.73;;
20531;SDS011;10424;52.102;8.084;2023-01-28T10:14:26;17.70;;;10.17;;
20531;SDS011;10424;52.102;8.084;2023-01-28T10:17:01;19.33;;;10.37;;
20531;SDS011;10424;52.102;8.084;2023-01-28T10:19:33;18.90;;;10.80;;
20531;SDS011;10424;52.102;8.084;2023-01-28T10:22:02;20.77;;;10.40;;
20531;SDS011;10424;52.102;8.084;2023-01-28T10:24:32;20.50;;;11.00;;
20531;SDS011;10424;52.102;8.084;2023-01-28T10:27:01;21.43;;;10.10;;
20531;SDS011;10424;52.102;8.084;2023-01-28T10:29:30;20.67;;;11.50;;
20531;SDS011;10424;52.102;8.084;2023-01-28T10:32:03;21.03;;;11.73;;
20531;SDS011;10424;52.102;8.084;2023-01-28T10:34:31;20.40;;;11.47;;
20531;SDS011;10424;52.102;8.084;2023-01-28T10:36:58;23.70;;;12.10;;
20531;SDS011;10424;52.102;8.084;2023-01-28T10:39:26;24.77;;;13.00;;
20531;SDS011;10424;52.102;8.084;2023-01-28T10:41:54;25.30;;;12.93;;
20531;SDS011;10424;52.102;8.084;2023-01-28T10:44:25;25.50;;;13.00;;
20531;SDS011;10424;52.102;8.084;2023-01-28T10:46:55;24.17;;;12.47;;
20531;SDS011;10424;52.102;8.084;2023-01-28T10:49:25;27.07;;;13.80;;
20531;SDS011;10424;52.102;8.084;2023-01-28T10:51:53;24.63;;;12.97;;
20531;SDS011;10424;52.102;8.084;2023-01-28T10:54:20;25.53;;;13.47;;
20531;SDS011;10424;52.102;8.084;2023-01-28T10:56:48;28.03;;;14.23;;
20531;SDS011;10424;52.102;8.084;2023-01-28T10:59:18;26.33;;;13.83;;
20531;SDS011;10424;52.102;8.084;2023-01-28T11:01:46;29.63;;;14.83;;
20531;SDS011;10424;52.102;8.084;2023-01-28T11:04:16;28.30;;;14.60;;
20531;SDS011;10424;52.102;8.084;2023-01-28T11:06:52;28.17;;;14.45;;
20531;SDS011;10424;52.102;8.084;2023-01-28T11:09:20;24.98;;;14.55;;
20531;SDS011;10424;52.102;8.084;2023-01-28T11:11:47;22.92;;;13.50;;
20531;SDS011;10424;52.102;8.084;2023-01-28T11:14:22;22.23;;;13.50;;
20531;SDS011;10424;52.102;8.084;2023-01-28T11:16:50;24.98;;;14.80;;
20531;SDS011;10424;52.102;8.084;2023-01-28T11:19:17;26.60;;;14.35;;
20531;SDS011;10424;52.102;8.084;2023-01-28T11:21:48;26.08;;;15.00;;
20531;SDS011;10424;52.102;8.084;2023-01-28T11:24:20;28.70;;;15.18;;
20531;SDS011;10424;52.102;8.084;2023-01-28T11:26:48;28.20;;;15.43;;
20531;SDS011;10424;52.102;8.084;2023-01-28T11:29:19;27.83;;;15.07;;
20531;SDS011;10424;52.102;8.084;2023-01-28T11:31:48;24.75;;;13.90;;
20531;SDS011;10424;52.102;8.084;2023-01-28T11:34:16;27.80;;;14.88;;
20531;SDS011;10424;52.102;8.084;2023-01-28T11:36:48;25.00;;;14.18;;
20531;SDS011;10424;52.102;8.084;2023-01-28T11:39:16;27.52;;;13.98;;
20531;SDS011;10424;52.102;8.084;2023-01-28T11:41:47;27.73;;;14.82;;
20531;SDS011;10424;52.102;8.084;2023-01-28T11:44:15;28.48;;;15.02;;
20531;SDS011;10424;52.102;8.084;2023-01-28T11:46:46;26.75;;;13.95;;
20531;SDS011;10424;52.102;8.084;2023-01-28T11:49:20;24.80;;;13.52;;
20531;SDS011;10424;52.102;8.084;2023-01-28T11:51:51;21.70;;;12.65;;
20531;SDS011;10424;52.102;8.084;2023-01-28T11:54:24;23.25;;;13.30;;
20531;SDS011;10424;52.102;8.084;2023-01-28T11:57:06;25.63;;;12.80;;
20531;SDS011;10424;52.102;8.084;2023-01-28T11:59:41;24.90;;;13.52;;
20531;SDS011;10424;52.102;8.084;2023-01-28T12:02:15;29.45;;;14.30;;
20531;SDS011;10424;52.102;8.084;2023-01-28T12:04:49;22.08;;;12.75;;
20531;SDS011;10424;52.102;8.084;2023-01-28T12:07:25;23.27;;;12.60;;
20531;SDS011;10424;52.102;8.084;2023-01-28T12:09:54;23.75;;;13.30;;
20531;SDS011;10424;52.102;8.084;2023-01-28T12:12:34;25.20;;;13.80;;
20531;SDS011;10424;52.102;8.084;2023-01-28T12:15:09;26.25;;;13.32;;
20531;SDS011;10424;52.102;8.084;2023-01-28T12:17:46;21.63;;;12.27;;
20531;SDS011;10424;52.102;8.084;2023-01-28T12:20:21;21.07;;;12.47;;
20531;SDS011;10424;52.102;8.084;2023-01-28T12:22:58;17.42;;;8.43;;
20531;SDS011;10424;52.102;8.084;2023-01-28T12:25:42;22.85;;;11.68;;
20531;SDS011;10424;52.102;8.084;2023-01-28T12:28:17;19.58;;;10.38;;
20531;SDS011;10424;52.102;8.084;2023-01-28T12:30:54;19.15;;;11.55;;
20531;SDS011;10424;52.102;8.084;2023-01-28T12:36:21;18.80;;;10.70;;
20531;SDS011;10424;52.102;8.084;2023-01-28T12:38:55;18.75;;;10.90;;
20531;SDS011;10424;52.102;8.084;2023-01-28T12:41:27;17.60;;;10.13;;
20531;SDS011;10424;52.102;8.084;2023-01-28T12:43:59;16.15;;;9.85;;
20531;SDS011;10424;52.102;8.084;2023-01-28T12:46:37;18.85;;;10.27;;
20531;SDS011;10424;52.102;8.084;2023-01-28T12:49:06;18.35;;;10.48;;
20531;SDS011;10424;52.102;8.084;2023-01-28T12:51:37;17.98;;;10.05;;
20531;SDS011;10424;52.102;8.084;2023-01-28T12:54:10;19.38;;;10.40;;
20531;SDS011;10424;52.102;8.084;2023-01-28T12:56:39;17.58;;;10.35;;
20531;SDS011;10424;52.102;8.084;2023-01-28T12:59:10;17.38;;;9.45;;
20531;SDS011;10424;52.102;8.084;2023-01-28T13:01:39;21.63;;;10.70;;
20531;SDS011;10424;52.102;8.084;2023-01-28T13:04:08;17.23;;;9.75;;
20531;SDS011;10424;52.102;8.084;2023-01-28T13:06:39;17.55;;;9.68;;
20531;SDS011;10424;52.102;8.084;2023-01-28T13:09:12;13.10;;;8.13;;
20531;SDS011;10424;52.102;8.084;2023-01-28T13:11:41;15.40;;;8.88;;
20531;SDS011;10424;52.102;8.084;2023-01-28T13:14:10;14.93;;;8.57;;
20531;SDS011;10424;52.102;8.084;2023-01-28T13:16:38;14.05;;;8.48;;
20531;SDS011;10424;52.102;8.084;2023-01-28T13:19:07;14.68;;;8.32;;
20531;SDS011;10424;52.102;8.084;2023-01-28T13:21:34;14.70;;;8.82;;
20531;SDS011;10424;52.102;8.084;2023-01-28T13:24:04;15.13;;;9.18;;
20531;SDS011;10424;52.102;8.084;2023-01-28T13:26:36;17.27;;;8.93;;
20531;SDS011;10424;52.102;8.084;2023-01-28T13:29:16;14.88;;;8.38;;
20531;SDS011;10424;52.102;8.084;2023-01-28T13:31:45;15.20;;;8.70;;
20531;SDS011;10424;52.102;8.084;2023-01-28T13:34:25;17.15;;;9.60;;
20531;SDS011;10424;52.102;8.084;2023-01-28T13:36:53;20.48;;;10.10;;
20531;SDS011;10424;52.102;8.084;2023-01-28T13:39:21;18.92;;;10.52;;
20531;SDS011;10424;52.102;8.084;2023-01-28T13:41:50;20.17;;;11.25;;
20531;SDS011;10424;52.102;8.084;2023-01-28T13:44:24;19.70;;;10.45;;
20531;SDS011;10424;52.102;8.084;2023-01-28T13:46:53;17.58;;;10.50;;
20531;SDS011;10424;52.102;8.084;2023-01-28T13:49:22;17.77;;;10.35;;
20531;SDS011;10424;52.102;8.084;2023-01-28T13:51:55;16.90;;;10.27;;
20531;SDS011;10424;52.102;8.084;2023-01-28T13:54:24;17.85;;;10.57;;
20531;SDS011;10424;52.102;8.084;2023-01-28T13:56:56;17.23;;;9.95;;
20531;SDS011;10424;52.102;8.084;2023-01-28T13:59:34;17.08;;;10.02;;
20531;SDS011;10424;52.102;8.084;2023-01-28T14:02:20;14.73;;;8.55;;
20531;SDS011;10424;52.102;8.084;2023-01-28T14:04:55;16.50;;;9.82;;
20531;SDS011;10424;52.102;8.084;2023-01-28T14:10:32;15.68;;;9.05;;
20531;SDS011;10424;52.102;8.084;2023-01-28T14:13:17;15.63;;;9.07;;
20531;SDS011;10424;52.102;8.084;2023-01-28T14:18:43;15.02;;;9.25;;
20531;SDS011;10424;52.102;8.084;2023-01-28T14:21:12;15.00;;;9.68;;
20531;SDS011;10424;52.102;8.084;2023-01-28T14:23:43;18.65;;;10.20;;
20531;SDS011;10424;52.102;8.084;2023-01-28T14:26:16;12.85;;;9.18;;
20531;SDS011;10424;52.102;8.084;2023-01-28T14:28:47;15.73;;;9.00;;
20531;SDS011;10424;52.102;8.084;2023-01-28T14:31:17;15.43;;;9.90;;
20531;SDS011;10424;52.102;8.084;2023-01-28T14:33:49;16.20;;;9.80;;
20531;SDS011;10424;52.102;8.084;2023-01-28T14:36:16;15.48;;;9.88;;
20531;SDS011;10424;52.102;8.084;2023-01-28T14:38:46;15.88;;;9.93;;
20531;SDS011;10424;52.102;8.084;2023-01-28T14:41:17;18.45;;;10.05;;
20531;SDS011;10424;52.102;8.084;2023-01-28T14:43:47;16.58;;;10.05;;
20531;SDS011;10424;52.102;8.084;2023-01-28T14:46:17;16.95;;;9.68;;
20531;SDS011;10424;52.102;8.084;2023-01-28T14:48:49;16.38;;;9.13;;
20531;SDS011;10424;52.102;8.084;2023-01-28T14:54:06;16.48;;;8.82;;
20531;SDS011;10424;52.102;8.084;2023-01-28T14:56:37;17.95;;;9.10;;
20531;SDS011;10424;52.102;8.084;2023-01-28T14:59:12;18.42;;;9.05;;
20531;SDS011;10424;52.102;8.084;2023-01-28T15:01:42;18.42;;;9.98;;
20531;SDS011;10424;52.102;8.084;2023-01-28T15:04:21;15.45;;;8.68;;